sensor_id;sensor_type;location;lat;lon;timestamp;pressure;altitude;pressure_sealevel;temperature;humidity
73952;BME280;62304;47.662;18.324;2023-03-01T00:01:52;101355.59;;;4.90;63.06
73952;BME280;62304;47.662;18.324;2023-03-01T00:04:55;101353.78;;;4.86;63.57
73952;BME280;62304;47.662;18.324;2023-03-01T00:08:00;101362.50;;;4.88;63.52
73952;BME280;62304;47.662;18.324;2023-03-01T00:14:17;101357.53;;;4.90;63.89
73952;BME280;62304;47.662;18.324;2023-03-01T00:17:20;101366.28;;;4.78;64.83
73952;BME280;62304;47.662;18.324;2023-03-01T00:20:23;101370.97;;;4.78;65.48
73952;BME280;62304;47.662;18.324;2023-03-01T00:23:26;101371.59;;;4.75;64.97
73952;BME280;62304;47.662;18.324;2023-03-01T00:26:29;101362.59;;;4.96;63.78
73952;BME280;62304;47.662;18.324;2023-03-01T00:29:33;101371.78;;;4.92;65.03
73952;BME280;62304;47.662;18.324;2023-03-01T00:32:36;101374.94;;;4.85;64.21
73952;BME280;62304;47.662;18.324;2023-03-01T00:35:39;101373.19;;;4.89;64.91
73952;BME280;62304;47.662;18.324;2023-03-01T00:38:44;101384.31;;;4.84;63.58
73952;BME280;62304;47.662;18.324;2023-03-01T00:41:48;101388.97;;;4.70;63.74
73952;BME280;62304;47.662;18.324;2023-03-01T00:44:51;101381.75;;;4.74;63.19
73952;BME280;62304;47.662;18.324;2023-03-01T00:47:54;101377.28;;;4.78;63.42
73952;BME280;62304;47.662;18.324;2023-03-01T00:50:56;101381.44;;;4.89;62.29
73952;BME280;62304;47.662;18.324;2023-03-01T00:54:02;101379.31;;;4.86;62.21
73952;BME280;62304;47.662;18.324;2023-03-01T00:57:05;101362.91;;;4.95;61.77
73952;BME280;62304;47.662;18.324;2023-03-01T01:00:08;101372.16;;;4.99;61.39
73952;BME280;62304;47.662;18.324;2023-03-01T01:03:11;101369.41;;;4.99;61.05
73952;BME280;62304;47.662;18.324;2023-03-01T01:06:20;101367.03;;;5.06;61.02
73952;BME280;62304;47.662;18.324;2023-03-01T01:09:23;101365.63;;;5.08;60.75
73952;BME280;62304;47.662;18.324;2023-03-01T01:12:27;101359.25;;;4.99;60.76
73952;BME280;62304;47.662;18.324;2023-03-01T01:15:34;101356.78;;;4.98;60.94
73952;BME280;62304;47.662;18.324;2023-03-01T01:18:37;101341.44;;;4.97;60.66
73952;BME280;62304;47.662;18.324;2023-03-01T01:21:40;101332.34;;;4.96;60.48
73952;BME280;62304;47.662;18.324;2023-03-01T01:24:45;101350.72;;;4.87;60.61
73952;BME280;62304;47.662;18.324;2023-03-01T01:27:48;101343.69;;;4.81;60.62
73952;BME280;62304;47.662;18.324;2023-03-01T01:30:51;101346.84;;;4.88;60.63
73952;BME280;62304;47.662;18.324;2023-03-01T01:33:54;101343.38;;;4.83;60.78
73952;BME280;62304;47.662;18.324;2023-03-01T01:36:58;101335.34;;;4.73;61.17
73952;BME280;62304;47.662;18.324;2023-03-01T01:40:05;101336.38;;;4.63;61.50
73952;BME280;62304;47.662;18.324;2023-03-01T01:43:21;101331.19;;;4.62;61.77
73952;BME280;62304;47.662;18.324;2023-03-01T01:46:31;101325.69;;;4.62;61.90
73952;BME280;62304;47.662;18.324;2023-03-01T01:49:56;101323.03;;;4.70;61.56
73952;BME280;62304;47.662;18.324;2023-03-01T01:52:59;101323.06;;;5.06;60.09
73952;BME280;62304;47.662;18.324;2023-03-01T01:56:03;101316.34;;;5.12;60.00
73952;BME280;62304;47.662;18.324;2023-03-01T01:59:09;101318.66;;;5.18;59.99
73952;BME280;62304;47.662;18.324;2023-03-01T02:02:14;101316.53;;;5.15;59.79
73952;BME280;62304;47.662;18.324;2023-03-01T02:05:33;101315.91;;;5.18;59.82
73952;BME280;62304;47.662;18.324;2023-03-01T02:08:39;101313.66;;;5.20;60.10
73952;BME280;62304;47.662;18.324;2023-03-01T02:11:44;101309.78;;;5.21;60.18
73952;BME280;62304;47.662;18.324;2023-03-01T02:14:49;101306.16;;;5.12;60.42
73952;BME280;62304;47.662;18.324;2023-03-01T02:17:53;101301.69;;;5.03;61.08
73952;BME280;62304;47.662;18.324;2023-03-01T02:21:08;101295.38;;;5.02;61.25
73952;BME280;62304;47.662;18.324;2023-03-01T02:27:33;101294.25;;;5.03;62.15
73952;BME280;62304;47.662;18.324;2023-03-01T02:30:39;101296.91;;;4.95;62.84
73952;BME280;62304;47.662;18.324;2023-03-01T02:34:03;101291.75;;;4.93;63.13
73952;BME280;62304;47.662;18.324;2023-03-01T02:37:15;101292.09;;;4.78;63.66
73952;BME280;62304;47.662;18.324;2023-03-01T02:40:23;101290.84;;;4.84;63.49
73952;BME280;62304;47.662;18.324;2023-03-01T02:43:29;101280.53;;;4.68;64.11
73952;BME280;62304;47.662;18.324;2023-03-01T02:46:33;101269.72;;;4.71;64.65
73952;BME280;62304;47.662;18.324;2023-03-01T02:49:37;101273.75;;;4.87;63.72
73952;BME280;62304;47.662;18.324;2023-03-01T02:52:43;101273.25;;;4.85;63.17
73952;BME280;62304;47.662;18.324;2023-03-01T02:55:48;101274.09;;;4.72;63.44
73952;BME280;62304;47.662;18.324;2023-03-01T02:58:52;101269.31;;;4.64;63.96
73952;BME280;62304;47.662;18.324;2023-03-01T03:01:56;101266.72;;;4.46;64.58
73952;BME280;62304;47.662;18.324;2023-03-01T03:04:59;101268.53;;;4.50;64.11
73952;BME280;62304;47.662;18.324;2023-03-01T03:08:03;101267.72;;;4.36;64.34
73952;BME280;62304;47.662;18.324;2023-03-01T03:11:06;101272.44;;;4.22;65.08
73952;BME280;62304;47.662;18.324;2023-03-01T03:14:11;101266.12;;;4.08;66.01
73952;BME280;62304;47.662;18.324;2023-03-01T03:17:18;101264.09;;;4.00;66.33
73952;BME280;62304;47.662;18.324;2023-03-01T03:20:23;101260.94;;;3.80;66.78
73952;BME280;62304;47.662;18.324;2023-03-01T03:23:26;101260.19;;;3.74;67.76
73952;BME280;62304;47.662;18.324;2023-03-01T03:26:31;101257.16;;;3.76;68.21
73952;BME280;62304;47.662;18.324;2023-03-01T03:29:34;101253.91;;;3.87;68.56
73952;BME280;62304;47.662;18.324;2023-03-01T03:32:41;101259.06;;;3.75;69.41
73952;BME280;62304;47.662;18.324;2023-03-01T03:35:48;101254.13;;;4.04;67.96
73952;BME280;62304;47.662;18.324;2023-03-01T03:38:51;101259.38;;;3.87;68.12
73952;BME280;62304;47.662;18.324;2023-03-01T03:41:54;101257.88;;;3.81;69.07
73952;BME280;62304;47.662;18.324;2023-03-01T03:44:57;101259.19;;;3.84;69.69
73952;BME280;62304;47.662;18.324;2023-03-01T03:48:02;101258.41;;;3.83;69.00
73952;BME280;62304;47.662;18.324;2023-03-01T03:51:06;101267.50;;;3.79;69.05
73952;BME280;62304;47.662;18.324;2023-03-01T03:54:12;101258.50;;;3.78;69.80
73952;BME280;62304;47.662;18.324;2023-03-01T03:57:15;101251.25;;;3.96;69.19
73952;BME280;62304;47.662;18.324;2023-03-01T04:00:20;101257.47;;;4.01;69.34
73952;BME280;62304;47.662;18.324;2023-03-01T04:03:25;101254.94;;;4.05;69.85
73952;BME280;62304;47.662;18.324;2023-03-01T04:06:28;101252.91;;;4.10;69.12
73952;BME280;62304;47.662;18.324;2023-03-01T04:09:31;101264.28;;;4.04;69.46
73952;BME280;62304;47.662;18.324;2023-03-01T04:12:35;101261.84;;;4.02;69.72
73952;BME280;62304;47.662;18.324;2023-03-01T04:15:39;101258.78;;;3.90;70.44
73952;BME280;62304;47.662;18.324;2023-03-01T04:18:42;101259.28;;;3.92;70.48
73952;BME280;62304;47.662;18.324;2023-03-01T04:21:45;101257.97;;;4.03;69.87
73952;BME280;62304;47.662;18.324;2023-03-01T04:24:48;101263.56;;;4.12;69.48
73952;BME280;62304;47.662;18.324;2023-03-01T04:27:51;101271.91;;;4.07;70.60
73952;BME280;62304;47.662;18.324;2023-03-01T04:30:56;101272.53;;;4.17;69.83
73952;BME280;62304;47.662;18.324;2023-03-01T04:34:01;101277.72;;;4.19;69.72
73952;BME280;62304;47.662;18.324;2023-03-01T04:37:04;101267.75;;;4.09;70.01
73952;BME280;62304;47.662;18.324;2023-03-01T04:40:09;101268.16;;;4.16;70.01
73952;BME280;62304;47.662;18.324;2023-03-01T04:43:18;101257.59;;;4.23;69.77
73952;BME280;62304;47.662;18.324;2023-03-01T04:46:21;101266.22;;;4.30;69.03
73952;BME280;62304;47.662;18.324;2023-03-01T04:49:25;101258.78;;;4.44;67.85
73952;BME280;62304;47.662;18.324;2023-03-01T04:52:28;101272.22;;;4.32;68.03
73952;BME280;62304;47.662;18.324;2023-03-01T04:55:31;101277.59;;;4.37;68.97
73952;BME280;62304;47.662;18.324;2023-03-01T04:58:34;101263.56;;;4.39;68.06
73952;BME280;62304;47.662;18.324;2023-03-01T05:01:37;101269.38;;;4.24;69.66
73952;BME280;62304;47.662;18.324;2023-03-01T05:04:40;101255.50;;;4.42;69.13
73952;BME280;62304;47.662;18.324;2023-03-01T05:07:43;101257.47;;;4.42;69.08
73952;BME280;62304;47.662;18.324;2023-03-01T05:10:51;101258.91;;;4.39;69.66
73952;BME280;62304;47.662;18.324;2023-03-01T05:13:54;101261.63;;;4.39;70.23
73952;BME280;62304;47.662;18.324;2023-03-01T05:16:58;101257.88;;;4.35;70.48
73952;BME280;62304;47.662;18.324;2023-03-01T05:20:06;101252.66;;;4.47;69.78
73952;BME280;62304;47.662;18.324;2023-03-01T05:23:13;101254.91;;;4.45;69.91
73952;BME280;62304;47.662;18.324;2023-03-01T05:26:17;101264.97;;;4.36;70.01
73952;BME280;62304;47.662;18.324;2023-03-01T05:29:31;101255.75;;;4.32;69.87
73952;BME280;62304;47.662;18.324;2023-03-01T05:32:37;101253.13;;;4.27;71.29
73952;BME280;62304;47.662;18.324;2023-03-01T05:35:42;101255.53;;;4.29;70.83
73952;BME280;62304;47.662;18.324;2023-03-01T05:38:46;101266.50;;;4.15;71.07
73952;BME280;62304;47.662;18.324;2023-03-01T05:41:56;101268.97;;;4.03;71.40
73952;BME280;62304;47.662;18.324;2023-03-01T05:44:59;101268.34;;;3.93;72.32
73952;BME280;62304;47.662;18.324;2023-03-01T05:48:03;101278.41;;;3.84;72.72
73952;BME280;62304;47.662;18.324;2023-03-01T05:51:10;101281.88;;;3.89;73.03
73952;BME280;62304;47.662;18.324;2023-03-01T05:54:15;101288.97;;;3.90;72.84
73952;BME280;62304;47.662;18.324;2023-03-01T05:57:18;101284.41;;;3.86;72.99
73952;BME280;62304;47.662;18.324;2023-03-01T06:00:21;101292.53;;;3.77;74.24
73952;BME280;62304;47.662;18.324;2023-03-01T06:03:25;101275.34;;;3.85;73.12
73952;BME280;62304;47.662;18.324;2023-03-01T06:06:28;101279.81;;;3.81;73.18
73952;BME280;62304;47.662;18.324;2023-03-01T06:09:33;101283.16;;;3.65;75.10
73952;BME280;62304;47.662;18.324;2023-03-01T06:12:37;101283.84;;;3.70;74.91
73952;BME280;62304;47.662;18.324;2023-03-01T06:15:40;101276.06;;;3.77;74.34
73952;BME280;62304;47.662;18.324;2023-03-01T06:18:43;101278.84;;;3.91;73.58
73952;BME280;62304;47.662;18.324;2023-03-01T06:21:46;101285.84;;;3.97;73.01
73952;BME280;62304;47.662;18.324;2023-03-01T06:24:49;101292.97;;;3.98;72.83
73952;BME280;62304;47.662;18.324;2023-03-01T06:27:52;101287.84;;;3.91;73.52
73952;BME280;62304;47.662;18.324;2023-03-01T06:30:55;101284.81;;;3.93;72.89
73952;BME280;62304;47.662;18.324;2023-03-01T06:33:58;101284.81;;;3.93;73.69
73952;BME280;62304;47.662;18.324;2023-03-01T06:37:01;101284.19;;;3.96;73.34
73952;BME280;62304;47.662;18.324;2023-03-01T06:40:09;101298.66;;;4.01;73.19
73952;BME280;62304;47.662;18.324;2023-03-01T06:43:14;101295.63;;;4.03;73.55
73952;BME280;62304;47.662;18.324;2023-03-01T06:46:17;101299.06;;;4.08;73.05
73952;BME280;62304;47.662;18.324;2023-03-01T06:49:20;101293.56;;;4.08;72.87
73952;BME280;62304;47.662;18.324;2023-03-01T06:52:23;101301.22;;;4.11;73.42
73952;BME280;62304;47.662;18.324;2023-03-01T06:55:26;101299.06;;;4.22;73.29
73952;BME280;62304;47.662;18.324;2023-03-01T06:58:30;101292.56;;;4.31;73.40
73952;BME280;62304;47.662;18.324;2023-03-01T07:01:32;101294.59;;;4.39;72.66
73952;BME280;62304;47.662;18.324;2023-03-01T07:04:36;101290.22;;;4.38;72.53
73952;BME280;62304;47.662;18.324;2023-03-01T07:07:38;101296.31;;;4.35;73.07
73952;BME280;62304;47.662;18.324;2023-03-01T07:10:42;101294.59;;;4.39;72.71
73952;BME280;62304;47.662;18.324;2023-03-01T07:13:44;101292.62;;;4.40;73.01
73952;BME280;62304;47.662;18.324;2023-03-01T07:16:48;101294.50;;;4.44;72.98
73952;BME280;62304;47.662;18.324;2023-03-01T07:19:51;101289.09;;;4.53;73.05
73952;BME280;62304;47.662;18.324;2023-03-01T07:22:55;101301.91;;;4.57;72.62
73952;BME280;62304;47.662;18.324;2023-03-01T07:26:00;101304.53;;;4.62;72.46
73952;BME280;62304;47.662;18.324;2023-03-01T07:29:05;101302.63;;;4.63;72.52
73952;BME280;62304;47.662;18.324;2023-03-01T07:32:09;101296.28;;;4.62;72.63
73952;BME280;62304;47.662;18.324;2023-03-01T07:35:13;101299.62;;;4.73;72.36
73952;BME280;62304;47.662;18.324;2023-03-01T07:38:17;101297.59;;;4.78;72.19
73952;BME280;62304;47.662;18.324;2023-03-01T07:41:20;101296.34;;;4.84;71.90
73952;BME280;62304;47.662;18.324;2023-03-01T07:44:23;101300.00;;;4.93;72.04
73952;BME280;62304;47.662;18.324;2023-03-01T07:47:26;101298.13;;;5.02;72.42
73952;BME280;62304;47.662;18.324;2023-03-01T07:50:29;101292.09;;;5.14;71.46
73952;BME280;62304;47.662;18.324;2023-03-01T07:53:33;101294.41;;;5.20;71.37
73952;BME280;62304;47.662;18.324;2023-03-01T07:56:36;101291.03;;;5.23;71.19
73952;BME280;62304;47.662;18.324;2023-03-01T07:59:39;101292.34;;;5.26;71.12
73952;BME280;62304;47.662;18.324;2023-03-01T08:02:42;101292.28;;;5.39;70.52
73952;BME280;62304;47.662;18.324;2023-03-01T08:05:46;101287.97;;;5.47;70.28
73952;BME280;62304;47.662;18.324;2023-03-01T08:08:48;101295.09;;;5.48;70.33
73952;BME280;62304;47.662;18.324;2023-03-01T08:11:52;101302.22;;;5.49;70.36
73952;BME280;62304;47.662;18.324;2023-03-01T08:14:55;101304.84;;;5.54;70.14
73952;BME280;62304;47.662;18.324;2023-03-01T08:17:58;101305.34;;;5.56;69.75
73952;BME280;62304;47.662;18.324;2023-03-01T08:21:02;101296.66;;;5.62;69.54
73952;BME280;62304;47.662;18.324;2023-03-01T08:24:06;101291.06;;;5.76;69.23
73952;BME280;62304;47.662;18.324;2023-03-01T08:27:09;101298.25;;;5.85;68.98
73952;BME280;62304;47.662;18.324;2023-03-01T08:30:15;101292.88;;;5.80;68.71
73952;BME280;62304;47.662;18.324;2023-03-01T08:33:18;101285.50;;;5.89;68.40
73952;BME280;62304;47.662;18.324;2023-03-01T08:36:22;101267.63;;;6.09;67.90
73952;BME280;62304;47.662;18.324;2023-03-01T08:39:26;101273.50;;;6.24;67.34
73952;BME280;62304;47.662;18.324;2023-03-01T08:42:29;101282.81;;;6.45;66.98
73952;BME280;62304;47.662;18.324;2023-03-01T08:45:31;101269.56;;;6.64;67.26
73952;BME280;62304;47.662;18.324;2023-03-01T08:48:35;101267.31;;;6.83;66.52
73952;BME280;62304;47.662;18.324;2023-03-01T08:51:38;101261.16;;;6.95;66.16
73952;BME280;62304;47.662;18.324;2023-03-01T08:54:41;101262.16;;;7.07;66.09
73952;BME280;62304;47.662;18.324;2023-03-01T08:57:44;101253.69;;;7.12;64.62
73952;BME280;62304;47.662;18.324;2023-03-01T09:00:47;101252.72;;;7.17;64.09
73952;BME280;62304;47.662;18.324;2023-03-01T09:03:50;101252.88;;;7.29;64.68
73952;BME280;62304;47.662;18.324;2023-03-01T09:06:53;101252.88;;;7.29;64.69
73952;BME280;62304;47.662;18.324;2023-03-01T09:09:56;101251.28;;;7.19;64.15
73952;BME280;62304;47.662;18.324;2023-03-01T09:12:59;101252.22;;;7.15;64.35
73952;BME280;62304;47.662;18.324;2023-03-01T09:16:03;101248.50;;;7.19;63.55
73952;BME280;62304;47.662;18.324;2023-03-01T09:19:07;101252.03;;;7.37;63.55
73952;BME280;62304;47.662;18.324;2023-03-01T09:22:10;101245.03;;;7.56;63.05
73952;BME280;62304;47.662;18.324;2023-03-01T09:25:13;101242.25;;;7.65;63.29
73952;BME280;62304;47.662;18.324;2023-03-01T09:28:16;101244.91;;;7.44;63.33
73952;BME280;62304;47.662;18.324;2023-03-01T09:31:31;101240.84;;;7.33;63.28
73952;BME280;62304;47.662;18.324;2023-03-01T09:34:34;101237.59;;;7.40;62.61
73952;BME280;62304;47.662;18.324;2023-03-01T09:37:56;101232.69;;;7.54;62.07
73952;BME280;62304;47.662;18.324;2023-03-01T09:41:18;101209.44;;;7.72;61.96
73952;BME280;62304;47.662;18.324;2023-03-01T09:47:45;101212.09;;;7.97;61.64
73952;BME280;62304;47.662;18.324;2023-03-01T09:50:49;101208.12;;;8.07;60.11
73952;BME280;62304;47.662;18.324;2023-03-01T09:53:52;101201.53;;;8.57;59.42
73952;BME280;62304;47.662;18.324;2023-03-01T09:57:47;101198.97;;;8.52;59.88
73952;BME280;62304;47.662;18.324;2023-03-01T10:03:39;101199.66;;;8.90;58.59
73952;BME280;62304;47.662;18.324;2023-03-01T10:06:52;101196.09;;;9.22;57.62
73952;BME280;62304;47.662;18.324;2023-03-01T10:10:01;101200.16;;;9.93;55.91
73952;BME280;62304;47.662;18.324;2023-03-01T10:13:17;101194.53;;;10.50;53.28
73952;BME280;62304;47.662;18.324;2023-03-01T10:16:38;101183.34;;;10.46;53.80
73952;BME280;62304;47.662;18.324;2023-03-01T10:19:44;101177.13;;;11.16;53.50
73952;BME280;62304;47.662;18.324;2023-03-01T10:22:49;101172.34;;;11.17;52.18
73952;BME280;62304;47.662;18.324;2023-03-01T10:29:41;101161.81;;;11.65;51.07
73952;BME280;62304;47.662;18.324;2023-03-01T10:32:48;101157.19;;;11.57;50.12
73952;BME280;62304;47.662;18.324;2023-03-01T10:35:52;101148.28;;;11.95;50.12
73952;BME280;62304;47.662;18.324;2023-03-01T10:38:56;101149.50;;;12.28;48.28
73952;BME280;62304;47.662;18.324;2023-03-01T10:42:05;101145.31;;;12.03;50.35
73952;BME280;62304;47.662;18.324;2023-03-01T10:45:37;101127.94;;;12.41;47.89
73952;BME280;62304;47.662;18.324;2023-03-01T10:48:40;101114.81;;;13.81;46.67
73952;BME280;62304;47.662;18.324;2023-03-01T10:51:45;101113.84;;;14.74;44.14
73952;BME280;62304;47.662;18.324;2023-03-01T10:54:58;101116.06;;;14.62;42.23
73952;BME280;62304;47.662;18.324;2023-03-01T11:04:21;101116.56;;;15.73;40.54
73952;BME280;62304;47.662;18.324;2023-03-01T11:07:24;101105.13;;;14.79;41.96
73952;BME280;62304;47.662;18.324;2023-03-01T11:10:35;101096.78;;;14.83;41.35
73952;BME280;62304;47.662;18.324;2023-03-01T11:13:55;101096.16;;;14.63;41.79
73952;BME280;62304;47.662;18.324;2023-03-01T11:17:03;101086.69;;;13.67;43.16
73952;BME280;62304;47.662;18.324;2023-03-01T11:23:17;101084.97;;;12.76;45.41
73952;BME280;62304;47.662;18.324;2023-03-01T11:26:21;101083.91;;;12.27;46.32
73952;BME280;62304;47.662;18.324;2023-03-01T11:29:40;101082.59;;;11.71;47.43
73952;BME280;62304;47.662;18.324;2023-03-01T11:32:53;101081.59;;;11.64;48.14
73952;BME280;62304;47.662;18.324;2023-03-01T11:39:41;101084.16;;;11.41;48.55
73952;BME280;62304;47.662;18.324;2023-03-01T11:49:53;101086.78;;;10.91;50.24
73952;BME280;62304;47.662;18.324;2023-03-01T11:53:21;101089.03;;;10.46;52.47
73952;BME280;62304;47.662;18.324;2023-03-01T11:56:29;101087.09;;;10.35;52.24
73952;BME280;62304;47.662;18.324;2023-03-01T12:00:02;101087.91;;;10.35;51.74
73952;BME280;62304;47.662;18.324;2023-03-01T12:06:56;101075.13;;;10.07;52.98
73952;BME280;62304;47.662;18.324;2023-03-01T12:18:01;101070.41;;;10.07;53.62
73952;BME280;62304;47.662;18.324;2023-03-01T12:24:53;101061.28;;;10.19;53.34
73952;BME280;62304;47.662;18.324;2023-03-01T12:38:37;101047.94;;;10.64;53.13
73952;BME280;62304;47.662;18.324;2023-03-01T12:41:48;101042.78;;;10.78;52.67
73952;BME280;62304;47.662;18.324;2023-03-01T12:51:54;101024.75;;;11.15;52.18
73952;BME280;62304;47.662;18.324;2023-03-01T12:55:02;101028.88;;;10.62;53.14
73952;BME280;62304;47.662;18.324;2023-03-01T12:58:28;101030.97;;;10.65;53.09
73952;BME280;62304;47.662;18.324;2023-03-01T13:02:02;101018.00;;;10.42;53.82
73952;BME280;62304;47.662;18.324;2023-03-01T13:05:23;101021.25;;;10.59;53.77
73952;BME280;62304;47.662;18.324;2023-03-01T13:08:58;101022.31;;;10.55;53.61
73952;BME280;62304;47.662;18.324;2023-03-01T13:15:50;101027.63;;;10.60;53.61
73952;BME280;62304;47.662;18.324;2023-03-01T13:19:27;101020.63;;;10.50;54.04
73952;BME280;62304;47.662;18.324;2023-03-01T13:22:35;101021.38;;;10.63;54.42
73952;BME280;62304;47.662;18.324;2023-03-01T13:29:01;101000.78;;;11.07;53.49
73952;BME280;62304;47.662;18.324;2023-03-01T13:32:19;100998.59;;;11.00;53.26
73952;BME280;62304;47.662;18.324;2023-03-01T13:38:48;100979.69;;;10.75;54.15
73952;BME280;62304;47.662;18.324;2023-03-01T13:42:01;100986.59;;;11.12;53.52
73952;BME280;62304;47.662;18.324;2023-03-01T13:45:38;100967.38;;;12.22;50.89
73952;BME280;62304;47.662;18.324;2023-03-01T13:48:44;100958.19;;;13.01;48.98
73952;BME280;62304;47.662;18.324;2023-03-01T13:51:49;100952.41;;;12.91;49.24
73952;BME280;62304;47.662;18.324;2023-03-01T13:54:53;100944.56;;;13.19;48.92
73952;BME280;62304;47.662;18.324;2023-03-01T13:57:59;100946.47;;;13.15;47.87
73952;BME280;62304;47.662;18.324;2023-03-01T14:01:06;100950.00;;;12.67;48.55
73952;BME280;62304;47.662;18.324;2023-03-01T14:07:26;100955.03;;;12.61;49.64
73952;BME280;62304;47.662;18.324;2023-03-01T14:10:44;100944.59;;;11.79;51.00
73952;BME280;62304;47.662;18.324;2023-03-01T14:14:19;100935.09;;;11.14;52.41
73952;BME280;62304;47.662;18.324;2023-03-01T14:17:34;100924.38;;;10.97;52.60
73952;BME280;62304;47.662;18.324;2023-03-01T14:20:44;100936.56;;;10.77;53.13
73952;BME280;62304;47.662;18.324;2023-03-01T14:23:54;100935.25;;;10.44;54.40
73952;BME280;62304;47.662;18.324;2023-03-01T14:26:56;100933.81;;;10.34;55.06
73952;BME280;62304;47.662;18.324;2023-03-01T14:30:03;100932.28;;;10.37;54.47
73952;BME280;62304;47.662;18.324;2023-03-01T14:33:22;100924.06;;;10.40;54.64
73952;BME280;62304;47.662;18.324;2023-03-01T14:36:28;100921.59;;;10.66;54.23
73952;BME280;62304;47.662;18.324;2023-03-01T14:39:32;100923.12;;;10.79;53.54
73952;BME280;62304;47.662;18.324;2023-03-01T14:42:36;100916.66;;;10.75;53.59
73952;BME280;62304;47.662;18.324;2023-03-01T14:45:39;100904.59;;;10.99;53.47
73952;BME280;62304;47.662;18.324;2023-03-01T14:48:42;100903.38;;;11.31;52.70
73952;BME280;62304;47.662;18.324;2023-03-01T14:51:58;100901.50;;;11.35;52.56
73952;BME280;62304;47.662;18.324;2023-03-01T14:55:06;100899.62;;;11.23;53.17
73952;BME280;62304;47.662;18.324;2023-03-01T14:58:13;100891.16;;;11.16;53.34
73952;BME280;62304;47.662;18.324;2023-03-01T15:01:17;100889.34;;;11.08;53.41
73952;BME280;62304;47.662;18.324;2023-03-01T15:04:21;100887.94;;;10.99;53.42
73952;BME280;62304;47.662;18.324;2023-03-01T15:07:29;100890.47;;;10.88;53.60
73952;BME280;62304;47.662;18.324;2023-03-01T15:10:35;100874.88;;;10.68;54.15
73952;BME280;62304;47.662;18.324;2023-03-01T15:13:40;100876.41;;;10.50;54.81
73952;BME280;62304;47.662;18.324;2023-03-01T15:16:44;100871.72;;;10.39;55.06
73952;BME280;62304;47.662;18.324;2023-03-01T15:19:47;100872.81;;;10.34;55.44
73952;BME280;62304;47.662;18.324;2023-03-01T15:22:50;100874.41;;;10.35;55.38
73952;BME280;62304;47.662;18.324;2023-03-01T15:25:54;100868.69;;;10.28;55.41
73952;BME280;62304;47.662;18.324;2023-03-01T15:29:00;100870.34;;;10.17;55.62
73952;BME280;62304;47.662;18.324;2023-03-01T15:45:33;100888.91;;;9.62;57.26
73952;BME280;62304;47.662;18.324;2023-03-01T15:48:36;100891.84;;;9.41;58.09
73952;BME280;62304;47.662;18.324;2023-03-01T15:51:40;100889.44;;;9.28;58.48
73952;BME280;62304;47.662;18.324;2023-03-01T15:54:43;100884.72;;;9.16;58.85
73952;BME280;62304;47.662;18.324;2023-03-01T15:57:47;100889.59;;;9.07;59.15
73952;BME280;62304;47.662;18.324;2023-03-01T16:00:51;100897.31;;;9.02;59.28
73952;BME280;62304;47.662;18.324;2023-03-01T16:04:04;100890.63;;;8.91;59.63
73952;BME280;62304;47.662;18.324;2023-03-01T16:07:08;100885.91;;;8.79;59.98
73952;BME280;62304;47.662;18.324;2023-03-01T16:10:12;100889.44;;;8.68;60.32
73952;BME280;62304;47.662;18.324;2023-03-01T16:13:16;100894.97;;;8.56;60.52
73952;BME280;62304;47.662;18.324;2023-03-01T16:16:20;100894.63;;;8.45;60.98
73952;BME280;62304;47.662;18.324;2023-03-01T16:19:25;100887.56;;;8.36;61.40
73952;BME280;62304;47.662;18.324;2023-03-01T16:22:29;100889.25;;;8.28;61.82
73952;BME280;62304;47.662;18.324;2023-03-01T16:25:33;100887.41;;;8.20;61.73
73952;BME280;62304;47.662;18.324;2023-03-01T16:28:39;100897.91;;;8.06;62.17
73952;BME280;62304;47.662;18.324;2023-03-01T16:31:43;100893.94;;;7.95;62.72
73952;BME280;62304;47.662;18.324;2023-03-01T16:34:48;100901.03;;;7.84;62.91
73952;BME280;62304;47.662;18.324;2023-03-01T16:37:51;100902.00;;;7.68;63.19
73952;BME280;62304;47.662;18.324;2023-03-01T16:40:58;100910.22;;;7.56;63.74
73952;BME280;62304;47.662;18.324;2023-03-01T16:44:01;100918.09;;;7.45;64.19
73952;BME280;62304;47.662;18.324;2023-03-01T16:47:04;100914.78;;;7.31;65.22
73952;BME280;62304;47.662;18.324;2023-03-01T16:50:07;100913.84;;;7.27;65.22
73952;BME280;62304;47.662;18.324;2023-03-01T16:53:10;100915.69;;;7.15;66.16
73952;BME280;62304;47.662;18.324;2023-03-01T16:56:14;100919.50;;;7.02;66.62
73952;BME280;62304;47.662;18.324;2023-03-01T16:59:18;100920.88;;;6.87;67.45
73952;BME280;62304;47.662;18.324;2023-03-01T17:02:22;100924.00;;;7.06;66.54
73952;BME280;62304;47.662;18.324;2023-03-01T17:05:26;100927.34;;;6.91;66.92
73952;BME280;62304;47.662;18.324;2023-03-01T17:08:29;100924.22;;;6.64;67.90
73952;BME280;62304;47.662;18.324;2023-03-01T17:11:33;100929.09;;;6.67;67.82
73952;BME280;62304;47.662;18.324;2023-03-01T17:14:38;100928.94;;;6.63;67.96
73952;BME280;62304;47.662;18.324;2023-03-01T17:17:44;100934.81;;;6.45;68.43
73952;BME280;62304;47.662;18.324;2023-03-01T17:20:47;100943.25;;;6.40;68.82
73952;BME280;62304;47.662;18.324;2023-03-01T17:23:55;100938.06;;;6.38;68.87
73952;BME280;62304;47.662;18.324;2023-03-01T17:26:59;100934.97;;;6.48;68.64
73952;BME280;62304;47.662;18.324;2023-03-01T17:30:04;100941.94;;;6.46;68.70
73952;BME280;62304;47.662;18.324;2023-03-01T17:33:07;100929.81;;;6.38;68.58
73952;BME280;62304;47.662;18.324;2023-03-01T17:36:15;100931.44;;;6.31;68.47
73952;BME280;62304;47.662;18.324;2023-03-01T17:39:18;100922.88;;;6.24;69.09
73952;BME280;62304;47.662;18.324;2023-03-01T17:42:33;100923.06;;;6.19;68.75
73952;BME280;62304;47.662;18.324;2023-03-01T17:45:38;100930.19;;;6.11;69.00
73952;BME280;62304;47.662;18.324;2023-03-01T17:48:42;100928.28;;;6.03;69.51